Time;durP1;ratioP1;P1;durP2;ratioP2;P2;SDS_P1;SDS_P2;PMS_P1;PMS_P2;Temp;Humidity;BMP_temperature;BMP_pressure;BME280_temperature;BME280_humidity;BME280_pressure;Samples;Min_cycle;Max_cycle;Signal;HPM_P1;HPM_P2
2023/05/10 00:01:46;;;;;;;15.57;8.98;;;13.30;98.20;;;;;;6187010;22;87704;-79
2023/05/10 00:04:12;;;;;;;16.08;8.77;;;13.30;98.30;;;;;;6187409;22;88032;-79
2023/05/10 00:06:38;;;;;;;17.13;8.80;;;13.30;98.20;;;;;;6187034;22;87965;-79
2023/05/10 00:09:03;;;;;;;14.50;8.50;;;13.30;98.30;;;;;;6160187;22;87436;-79
2023/05/10 00:11:29;;;;;;;17.45;9.35;;;13.20;98.30;;;;;;6187320;22;86328;-79
2023/05/10 00:13:55;;;;;;;12.70;8.98;;;13.30;98.40;;;;;;6186725;22;88997;-79
2023/05/10 00:16:20;;;;;;;15.45;9.32;;;13.20;98.40;;;;;;6187802;22;87669;-79
2023/05/10 00:18:46;;;;;;;15.10;8.63;;;13.30;98.50;;;;;;6187026;22;88190;-79
2023/05/10 00:21:12;;;;;;;17.23;8.80;;;13.20;98.50;;;;;;6186387;22;87333;-79
2023/05/10 00:23:37;;;;;;;12.93;8.70;;;13.20;98.50;;;;;;6186771;22;88931;-78
2023/05/10 00:26:03;;;;;;;19.67;10.07;;;13.20;98.40;;;;;;6159986;22;91166;-79
2023/05/10 00:28:29;;;;;;;14.90;9.13;;;13.20;98.50;;;;;;6187106;22;87282;-79
2023/05/10 00:30:55;;;;;;;14.32;9.35;;;13.20;98.50;;;;;;6186535;22;87494;-79
2023/05/10 00:33:21;;;;;;;14.93;9.40;;;13.20;98.50;;;;;;6186049;22;94905;-79
2023/05/10 00:35:46;;;;;;;19.15;9.90;;;13.20;98.50;;;;;;6187255;22;87894;-79
2023/05/10 00:38:12;;;;;;;16.30;10.27;;;13.20;98.40;;;;;;6186996;22;87587;-79
2023/05/10 00:40:38;;;;;;;14.10;9.38;;;13.20;98.40;;;;;;6186693;22;87487;-79
2023/05/10 00:43:05;;;;;;;17.55;9.77;;;13.20;98.40;;;;;;6186248;22;89354;-79
2023/05/10 00:45:32;;;;;;;16.17;9.20;;;13.20;98.40;;;;;;6186250;22;89769;-79
2023/05/10 00:48:00;;;;;;;17.13;10.02;;;13.20;98.40;;;;;;6186190;22;87618;-79
2023/05/10 00:50:26;;;;;;;17.58;9.65;;;13.20;98.20;;;;;;6185489;22;87524;-79
2023/05/10 00:52:52;;;;;;;16.33;9.50;;;13.20;98.20;;;;;;6186619;22;88347;-79
2023/05/10 00:55:18;;;;;;;14.20;9.38;;;13.10;98.00;;;;;;6187211;22;88169;-79
2023/05/10 00:57:44;;;;;;;16.33;9.82;;;13.10;97.70;;;;;;6186299;22;87637;-79
2023/05/10 01:00:11;;;;;;;16.70;10.38;;;13.10;97.90;;;;;;6187530;22;87321;-79
2023/05/10 01:02:36;;;;;;;15.25;9.55;;;13.10;97.90;;;;;;6186008;22;88821;-79
2023/05/10 01:05:06;;;;;;;16.20;9.95;;;13.20;98.00;;;;;;6187372;22;87309;-79
2023/05/10 01:07:31;;;;;;;20.23;9.90;;;13.20;97.90;;;;;;6160419;22;88321;-79
2023/05/10 01:09:57;;;;;;;21.92;10.52;;;13.10;97.80;;;;;;6186746;22;87396;-79
2023/05/10 01:12:23;;;;;;;19.10;9.98;;;13.10;97.80;;;;;;6173404;22;88442;-79
2023/05/10 01:14:49;;;;;;;21.58;10.38;;;13.10;97.70;;;;;;6159155;22;91429;-78
2023/05/10 01:17:16;;;;;;;19.77;9.60;;;13.10;97.80;;;;;;6185864;22;87946;-79
2023/05/10 01:19:41;;;;;;;19.17;10.30;;;13.00;97.70;;;;;;6182894;22;87280;-78
2023/05/10 01:22:34;;;;;;;18.55;10.77;;;13.10;97.80;;;;;;6186633;22;87396;-79
2023/05/10 01:25:12;;;;;;;23.00;10.82;;;13.00;97.80;;;;;;6187335;22;87932;-79
2023/05/10 01:27:43;;;;;;;17.23;10.18;;;13.00;97.70;;;;;;6182188;22;87656;-79
2023/05/10 01:30:55;;;;;;;19.83;10.63;;;13.00;97.80;;;;;;6181452;22;88228;-79
2023/05/10 01:33:28;;;;;;;19.30;10.63;;;13.00;97.80;;;;;;6063294;23;92938;-79
2023/05/10 01:36:19;;;;;;;24.80;11.95;;;13.00;97.90;;;;;;6165918;22;88492;-79
2023/05/10 01:38:52;;;;;;;19.70;11.15;;;13.00;97.90;;;;;;6158746;22;87032;-79
2023/05/10 01:41:33;;;;;;;21.23;9.88;;;13.00;98.00;;;;;;6185521;22;87632;-79
2023/05/10 01:44:29;;;;;;;20.92;11.57;;;13.00;97.90;;;;;;6186477;22;87732;-79
2023/05/10 01:47:22;;;;;;;18.67;11.60;;;13.00;97.90;;;;;;6185390;22;88784;-79
2023/05/10 01:49:51;;;;;;;19.25;10.50;;;13.00;97.90;;;;;;6158950;22;87378;-79
2023/05/10 01:52:21;;;;;;;16.48;10.90;;;13.00;97.90;;;;;;6186548;22;87497;-79
2023/05/10 01:54:58;;;;;;;19.70;10.73;;;13.00;97.90;;;;;;6186026;22;88737;-79
2023/05/10 01:57:27;;;;;;;18.15;11.00;;;13.00;98.00;;;;;;6185749;22;88609;-79
2023/05/10 01:59:54;;;;;;;20.23;10.75;;;13.00;98.00;;;;;;6185075;22;88468;-79
2023/05/10 02:02:21;;;;;;;21.85;11.18;;;13.00;97.90;;;;;;6185067;22;87464;-79
2023/05/10 02:04:50;;;;;;;17.25;10.07;;;13.00;97.60;;;;;;6184875;22;88974;-78
2023/05/10 02:07:17;;;;;;;22.98;10.13;;;13.00;97.60;;;;;;6158924;22;91576;-79
2023/05/10 02:09:47;;;;;;;18.25;10.18;;;13.00;97.60;;;;;;6185649;22;87309;-79
2023/05/10 02:12:14;;;;;;;21.98;11.02;;;13.00;97.70;;;;;;6157982;22;90801;-79
2023/05/10 02:14:42;;;;;;;22.10;10.95;;;13.00;97.70;;;;;;6185198;22;89191;-79
2023/05/10 02:17:09;;;;;;;22.02;11.43;;;13.00;97.60;;;;;;6185407;22;88186;-79
2023/05/10 02:19:38;;;;;;;26.95;11.60;;;13.00;97.60;;;;;;6186021;22;87482;-79
2023/05/10 02:22:05;;;;;;;18.27;10.95;;;12.90;97.70;;;;;;6185219;22;87484;-79
2023/05/10 02:24:33;;;;;;;24.08;12.43;;;12.90;97.70;;;;;;6184019;22;89473;-79
2023/05/10 02:27:00;;;;;;;21.65;10.98;;;12.90;97.70;;;;;;6157948;22;90576;-79
2023/05/10 02:29:28;;;;;;;23.05;12.57;;;12.90;97.70;;;;;;6185481;22;89447;-79
2023/05/10 02:31:56;;;;;;;31.08;13.23;;;12.90;97.70;;;;;;6185268;22;87588;-79
2023/05/10 02:34:23;;;;;;;21.58;12.55;;;12.90;97.80;;;;;;6185892;22;89193;-79
2023/05/10 02:36:50;;;;;;;28.02;12.98;;;12.90;97.70;;;;;;6157922;22;91459;-79
2023/05/10 02:39:18;;;;;;;28.92;12.55;;;12.90;97.80;;;;;;6185210;22;93282;-79
2023/05/10 02:41:46;;;;;;;26.70;12.05;;;12.90;97.90;;;;;;6185866;22;86664;-79
2023/05/10 02:44:15;;;;;;;25.50;11.85;;;12.90;97.70;;;;;;6185047;22;89166;-79
2023/05/10 02:46:41;;;;;;;24.35;13.15;;;12.90;97.80;;;;;;6184273;22;88035;-78
2023/05/10 02:49:07;;;;;;;28.92;13.50;;;12.90;97.80;;;;;;6185263;22;88314;-80
2023/05/10 02:51:37;;;;;;;28.92;13.60;;;12.90;97.80;;;;;;6185066;22;87381;-79
2023/05/10 02:54:11;;;;;;;30.50;13.60;;;12.90;97.90;;;;;;6184021;22;88037;-79
2023/05/10 02:56:46;;;;;;;30.58;14.52;;;12.90;97.90;;;;;;6157698;22;91147;-79
2023/05/10 02:59:12;;;;;;;32.50;14.98;;;12.90;97.80;;;;;;6158053;22;87613;-79
2023/05/10 03:01:38;;;;;;;24.10;13.85;;;12.90;97.90;;;;;;6185573;22;87800;-79
2023/05/10 03:04:04;;;;;;;26.35;14.13;;;12.90;97.80;;;;;;6185020;22;88924;-79
2023/05/10 03:06:30;;;;;;;30.20;14.30;;;12.90;97.80;;;;;;6185238;22;88993;-79
2023/05/10 03:08:56;;;;;;;34.33;15.43;;;12.90;97.80;;;;;;6185014;22;87445;-79
2023/05/10 03:11:30;;;;;;;32.78;14.93;;;12.90;97.80;;;;;;6157789;22;88933;-79
2023/05/10 03:14:16;;;;;;;28.30;15.23;;;12.90;98.00;;;;;;6184181;22;89176;-79
2023/05/10 03:16:47;;;;;;;29.60;15.13;;;12.90;97.70;;;;;;6157765;22;92367;-79
2023/05/10 03:19:22;;;;;;;32.22;14.82;;;12.90;97.70;;;;;;6158803;22;87198;-79
2023/05/10 03:21:51;;;;;;;32.25;16.58;;;12.90;97.90;;;;;;6184735;22;87406;-79
2023/05/10 03:24:21;;;;;;;33.53;15.70;;;13.00;97.90;;;;;;6156746;22;91787;-79
2023/05/10 03:26:48;;;;;;;37.95;16.08;;;13.00;97.80;;;;;;6157651;22;90197;-79
2023/05/10 03:29:15;;;;;;;34.83;16.30;;;13.00;98.00;;;;;;6157092;22;87617;-79
2023/05/10 03:31:41;;;;;;;33.08;16.05;;;13.00;97.70;;;;;;6185979;22;87385;-79
2023/05/10 03:34:07;;;;;;;34.17;16.13;;;13.00;97.80;;;;;;6184748;22;92972;-79
2023/05/10 03:36:32;;;;;;;32.13;16.15;;;13.00;97.90;;;;;;6184641;22;89145;-78
2023/05/10 03:38:58;;;;;;;37.25;17.10;;;13.00;97.90;;;;;;6157485;22;88572;-79
2023/05/10 03:41:25;;;;;;;32.33;16.10;;;13.00;97.80;;;;;;6185309;22;87189;-80
2023/05/10 03:43:51;;;;;;;38.50;16.58;;;13.00;97.90;;;;;;6184191;22;88837;-79
2023/05/10 03:46:17;;;;;;;35.03;17.50;;;13.00;97.90;;;;;;6158167;22;91713;-79
2023/05/10 03:48:42;;;;;;;31.65;16.95;;;13.00;97.90;;;;;;6185019;22;87471;-79
2023/05/10 03:51:08;;;;;;;35.88;17.20;;;13.00;97.80;;;;;;6184741;22;87764;-79
2023/05/10 03:53:34;;;;;;;32.17;16.08;;;13.00;97.70;;;;;;6184764;22;88110;-79
2023/05/10 03:56:00;;;;;;;33.05;17.50;;;13.00;97.70;;;;;;6185255;22;88262;-79
2023/05/10 03:58:25;;;;;;;36.97;17.50;;;13.00;97.80;;;;;;6185200;22;87517;-79
2023/05/10 04:00:52;;;;;;;34.10;17.08;;;13.00;97.80;;;;;;6157942;22;88992;-79
2023/05/10 04:03:17;;;;;;;33.92;16.52;;;13.00;97.80;;;;;;6183831;22;90268;-79
2023/05/10 04:05:43;;;;;;;36.53;16.15;;;13.00;97.80;;;;;;6183902;22;89640;-79
2023/05/10 04:08:09;;;;;;;38.10;17.30;;;13.00;97.80;;;;;;6183682;22;87047;-79
2023/05/10 04:10:35;;;;;;;33.25;16.35;;;13.00;97.90;;;;;;6185366;22;87656;-79
2023/05/10 04:13:00;;;;;;;38.13;17.02;;;13.00;97.80;;;;;;6184138;22;89227;-79
2023/05/10 04:15:26;;;;;;;32.50;16.45;;;13.00;98.00;;;;;;6183005;22;89079;-78
2023/05/10 04:17:52;;;;;;;37.42;17.08;;;13.00;98.10;;;;;;6184162;22;86996;-79
2023/05/10 04:20:17;;;;;;;33.70;17.15;;;13.00;98.10;;;;;;6183950;22;87363;-79
2023/05/10 04:22:43;;;;;;;31.17;15.15;;;13.00;98.20;;;;;;6156623;22;92115;-79
2023/05/10 04:25:09;;;;;;;30.25;13.77;;;12.90;98.30;;;;;;6184913;22;88229;-79
2023/05/10 04:27:35;;;;;;;26.88;12.88;;;12.90;98.30;;;;;;6156609;22;88366;-79
2023/05/10 04:30:01;;;;;;;25.88;13.35;;;12.90;98.20;;;;;;6184140;22;94923;-79
2023/05/10 04:32:26;;;;;;;25.95;13.68;;;12.90;98.30;;;;;;6184222;22;88435;-79
2023/05/10 04:34:52;;;;;;;28.00;12.73;;;12.90;98.30;;;;;;6184259;22;87057;-78
2023/05/10 04:37:18;;;;;;;27.55;14.07;;;12.80;98.20;;;;;;6185662;22;87560;-78
2023/05/10 04:39:44;;;;;;;32.97;13.63;;;12.80;98.30;;;;;;6167652;22;87496;-79
2023/05/10 04:42:10;;;;;;;32.00;13.95;;;12.80;98.30;;;;;;6145811;22;89420;-79
2023/05/10 04:44:36;;;;;;;28.25;14.00;;;12.80;98.30;;;;;;6184821;22;89018;-79
2023/05/10 04:47:02;;;;;;;29.98;13.73;;;12.80;98.30;;;;;;6157474;22;87425;-78
2023/05/10 04:49:29;;;;;;;32.60;14.85;;;12.70;98.20;;;;;;6159303;22;89448;-79
2023/05/10 04:51:55;;;;;;;24.48;12.90;;;12.80;98.30;;;;;;6184280;22;90082;-79
2023/05/10 04:54:20;;;;;;;23.00;12.40;;;12.80;98.30;;;;;;6184970;22;88380;-78
2023/05/10 04:56:46;;;;;;;21.55;11.60;;;12.70;98.30;;;;;;6185402;22;88256;-78
2023/05/10 04:59:12;;;;;;;16.27;9.15;;;12.80;98.40;;;;;;6185413;22;87357;-78
2023/05/10 05:01:37;;;;;;;20.20;9.63;;;12.70;98.00;;;;;;6187598;22;87598;-78
2023/05/10 05:04:03;;;;;;;16.58;9.55;;;12.70;98.20;;;;;;6186105;22;88815;-78
2023/05/10 05:06:29;;;;;;;22.38;10.02;;;12.70;98.30;;;;;;6186958;22;87312;-78
2023/05/10 05:08:55;;;;;;;19.48;10.52;;;12.70;98.30;;;;;;6185192;22;87301;-78
2023/05/10 05:11:21;;;;;;;18.73;8.70;;;12.70;98.50;;;;;;6184628;22;88469;-78
2023/05/10 05:13:47;;;;;;;17.95;9.07;;;12.70;98.40;;;;;;6186165;22;88382;-77
2023/05/10 05:16:13;;;;;;;16.33;7.95;;;12.70;98.50;;;;;;6187172;22;88435;-78
2023/05/10 05:18:39;;;;;;;17.85;7.90;;;12.70;98.50;;;;;;6186141;22;87807;-78
2023/05/10 05:21:17;;;;;;;17.20;7.88;;;12.70;98.40;;;;;;6186424;22;88264;-78
2023/05/10 05:23:43;;;;;;;20.60;9.00;;;12.70;98.60;;;;;;6171413;22;88925;-78
2023/05/10 05:26:09;;;;;;;15.68;8.13;;;12.60;98.60;;;;;;6186142;22;87330;-79
2023/05/10 05:28:37;;;;;;;17.45;8.50;;;12.70;98.70;;;;;;6160306;22;89121;-78
2023/05/10 05:31:03;;;;;;;19.35;8.48;;;12.70;98.70;;;;;;6185649;22;88822;-78
2023/05/10 05:33:29;;;;;;;17.80;8.40;;;12.70;98.70;;;;;;6186406;22;88068;-79
2023/05/10 05:35:55;;;;;;;16.77;8.65;;;12.70;98.70;;;;;;6186487;22;87407;-78
2023/05/10 05:38:20;;;;;;;15.68;8.00;;;12.80;98.70;;;;;;6186542;22;87412;-79
2023/05/10 05:40:46;;;;;;;17.55;8.77;;;12.80;98.90;;;;;;6186217;22;89411;-78
2023/05/10 05:43:12;;;;;;;18.05;8.27;;;12.80;98.70;;;;;;6187340;22;89069;-79
2023/05/10 05:45:37;;;;;;;16.25;8.98;;;12.80;98.60;;;;;;6186489;22;87872;-79
2023/05/10 05:48:03;;;;;;;14.55;8.27;;;12.80;98.40;;;;;;6186258;22;87566;-79
2023/05/10 05:50:32;;;;;;;15.40;8.65;;;12.90;98.40;;;;;;6193920;22;88621;-80
2023/05/10 05:52:58;;;;;;;18.88;9.52;;;12.90;98.40;;;;;;6159780;22;91642;-78
2023/05/10 05:55:24;;;;;;;19.98;9.77;;;12.90;98.30;;;;;;6187402;22;87213;-79
2023/05/10 05:57:49;;;;;;;20.60;11.57;;;12.80;98.10;;;;;;6159107;22;89246;-78
2023/05/10 06:00:16;;;;;;;29.00;12.60;;;12.90;98.10;;;;;;6158526;22;90677;-79
2023/05/10 06:02:41;;;;;;;25.65;11.98;;;12.80;97.90;;;;;;6185399;22;88413;-79
2023/05/10 06:05:07;;;;;;;27.25;13.48;;;12.80;97.90;;;;;;6185561;22;88457;-79
2023/05/10 06:07:33;;;;;;;30.30;14.10;;;12.90;97.80;;;;;;6186532;22;87548;-79
2023/05/10 06:09:59;;;;;;;31.38;16.25;;;12.80;97.90;;;;;;6158050;22;91809;-79
2023/05/10 06:12:24;;;;;;;35.60;16.20;;;12.90;97.80;;;;;;6185469;22;87917;-79
2023/05/10 06:14:50;;;;;;;29.33;15.75;;;12.90;97.80;;;;;;6184896;22;87556;-79
2023/05/10 06:17:15;;;;;;;33.30;15.05;;;13.00;97.80;;;;;;6182366;22;87496;-79
2023/05/10 06:19:41;;;;;;;30.20;15.52;;;13.00;97.70;;;;;;6158318;22;89508;-77
2023/05/10 06:22:07;;;;;;;28.55;14.68;;;13.00;97.40;;;;;;6185133;22;87861;-79
2023/05/10 06:24:32;;;;;;;31.88;15.80;;;12.90;97.60;;;;;;6185298;22;87461;-79
2023/05/10 06:26:59;;;;;;;37.17;18.48;;;12.90;97.70;;;;;;6185064;22;87766;-79
2023/05/10 06:29:37;;;;;;;49.20;20.17;;;12.90;97.70;;;;;;6184698;22;88434;-80
2023/05/10 06:32:03;;;;;;;50.45;20.27;;;13.00;97.60;;;;;;6157411;22;92812;-79
2023/05/10 06:34:29;;;;;;;48.97;21.73;;;13.00;97.60;;;;;;6186299;22;87407;-79
2023/05/10 06:36:55;;;;;;;48.10;23.85;;;13.00;97.60;;;;;;6185184;22;87786;-79
2023/05/10 06:39:21;;;;;;;51.63;22.85;;;13.00;97.50;;;;;;6157824;22;90804;-78
2023/05/10 06:41:46;;;;;;;147.00;29.95;;;13.00;97.40;;;;;;6157701;22;89778;-78
2023/05/10 06:44:12;;;;;;;51.15;21.25;;;13.00;97.40;;;;;;6185096;22;87414;-78
2023/05/10 06:46:38;;;;;;;47.17;20.00;;;13.00;97.40;;;;;;6185729;22;87171;-77
2023/05/10 06:49:05;;;;;;;44.63;19.70;;;13.10;97.40;;;;;;6184453;22;88905;-77
2023/05/10 06:51:31;;;;;;;50.47;21.35;;;13.00;97.30;;;;;;6184969;22;95481;-77
2023/05/10 06:53:56;;;;;;;47.53;20.90;;;13.00;97.40;;;;;;6184935;22;88484;-77
2023/05/10 06:56:22;;;;;;;41.13;20.70;;;13.00;97.20;;;;;;6184983;22;87155;-77
2023/05/10 06:58:48;;;;;;;41.33;18.80;;;13.00;97.10;;;;;;6184438;22;88145;-77
2023/05/10 07:01:14;;;;;;;37.60;19.08;;;13.00;97.30;;;;;;6184988;22;88769;-78
2023/05/10 07:03:40;;;;;;;45.50;20.35;;;13.00;97.10;;;;;;6184508;22;87376;-78
2023/05/10 07:06:07;;;;;;;43.97;20.25;;;13.10;97.10;;;;;;6185007;22;89302;-77
2023/05/10 07:08:33;;;;;;;40.78;18.75;;;13.00;97.30;;;;;;6158982;22;90033;-79
2023/05/10 07:11:10;;;;;;;43.17;20.02;;;13.10;97.30;;;;;;6184224;22;88247;-79
2023/05/10 07:13:36;;;;;;;36.03;19.15;;;13.10;97.00;;;;;;6187574;22;86894;-79
2023/05/10 07:16:02;;;;;;;37.45;18.75;;;13.10;96.80;;;;;;6184884;22;87601;-80
2023/05/10 07:18:31;;;;;;;37.45;18.40;;;13.20;96.90;;;;;;6184731;22;89435;-79
2023/05/10 07:20:57;;;;;;;44.33;18.13;;;13.20;96.90;;;;;;6184305;22;88809;-79
2023/05/10 07:23:43;;;;;;;40.50;19.60;;;13.30;97.10;;;;;;6158297;22;87470;-79
2023/05/10 07:26:10;;;;;;;35.28;18.35;;;13.30;96.90;;;;;;6184634;22;87448;-79
2023/05/10 07:28:37;;;;;;;35.53;17.42;;;13.30;96.80;;;;;;6186775;22;89042;-78
2023/05/10 07:31:03;;;;;;;34.35;17.15;;;13.30;96.50;;;;;;6185349;22;88472;-78
2023/05/10 07:33:28;;;;;;;19.38;10.30;;;13.30;96.70;;;;;;6185096;22;87479;-79
2023/05/10 07:35:54;;;;;;;10.30;5.55;;;13.30;96.40;;;;;;6185169;22;86536;-79
2023/05/10 07:38:20;;;;;;;7.72;4.75;;;13.20;96.50;;;;;;6185100;22;88122;-78
2023/05/10 07:40:45;;;;;;;7.15;4.03;;;13.00;96.30;;;;;;6185811;22;88009;-78
2023/05/10 07:43:11;;;;;;;6.90;4.10;;;13.00;96.50;;;;;;6186731;22;88394;-79
2023/05/10 07:45:37;;;;;;;4.82;3.15;;;13.00;97.00;;;;;;6185865;22;87969;-78
2023/05/10 07:48:02;;;;;;;6.18;3.30;;;12.90;96.60;;;;;;6186002;22;89173;-79
2023/05/10 07:50:28;;;;;;;3.03;1.98;;;12.90;96.60;;;;;;6158497;22;89845;-79
2023/05/10 07:52:54;;;;;;;3.22;2.00;;;12.80;96.50;;;;;;6185893;22;87178;-79
2023/05/10 07:55:21;;;;;;;4.30;2.17;;;12.80;97.00;;;;;;6186311;22;87418;-79
2023/05/10 07:57:47;;;;;;;5.13;2.10;;;12.80;96.80;;;;;;6185589;22;88000;-80
2023/05/10 08:00:16;;;;;;;1.80;1.00;;;12.80;96.90;;;;;;6185929;22;87771;-79
2023/05/10 08:02:42;;;;;;;1.95;1.23;;;12.80;96.40;;;;;;6186045;22;87251;-81
2023/05/10 08:05:07;;;;;;;1.88;0.90;;;12.80;96.80;;;;;;6187068;22;87335;-79
2023/05/10 08:07:33;;;;;;;3.45;1.00;;;12.80;96.10;;;;;;6185884;22;88807;-79
2023/05/10 08:09:59;;;;;;;1.00;0.82;;;12.80;96.40;;;;;;6185384;22;89099;-79
2023/05/10 08:12:24;;;;;;;1.30;1.20;;;12.80;96.30;;;;;;6186059;22;87396;-79
2023/05/10 08:14:50;;;;;;;4.32;1.52;;;12.80;96.10;;;;;;6185562;22;88138;-79
2023/05/10 08:17:16;;;;;;;2.22;1.20;;;12.80;96.20;;;;;;6158677;22;90241;-79
2023/05/10 08:19:41;;;;;;;1.63;1.45;;;12.80;96.40;;;;;;6157453;22;91741;-77
2023/05/10 08:22:08;;;;;;;3.63;2.05;;;12.80;95.90;;;;;;6186674;22;87888;-78
2023/05/10 08:24:38;;;;;;;3.05;1.55;;;12.90;96.60;;;;;;6186661;22;87186;-78
2023/05/10 08:27:04;;;;;;;9.40;2.50;;;12.90;96.70;;;;;;6186564;22;87960;-78
2023/05/10 08:29:30;;;;;;;3.55;1.70;;;12.80;96.10;;;;;;6159606;22;90514;-79
2023/05/10 08:31:55;;;;;;;6.43;1.55;;;12.80;96.30;;;;;;6185988;22;88707;-78
2023/05/10 08:34:21;;;;;;;3.92;1.90;;;12.80;96.30;;;;;;6160750;22;89620;-78
2023/05/10 08:36:47;;;;;;;5.07;2.00;;;12.80;95.80;;;;;;6187233;22;88413;-78
2023/05/10 08:39:13;;;;;;;3.20;1.83;;;12.80;96.50;;;;;;6186868;22;87325;-78
2023/05/10 08:41:40;;;;;;;7.15;2.00;;;12.70;96.30;;;;;;6159469;22;87756;-78
2023/05/10 08:44:08;;;;;;;6.97;2.47;;;12.70;96.20;;;;;;6188263;22;87596;-78
2023/05/10 08:46:38;;;;;;;5.95;2.50;;;12.70;96.50;;;;;;6190726;22;88016;-80
2023/05/10 08:49:06;;;;;;;3.95;2.33;;;12.70;96.70;;;;;;6159639;22;90305;-78
2023/05/10 08:51:40;;;;;;;5.88;2.95;;;12.70;96.10;;;;;;6186776;22;87562;-78
2023/05/10 08:54:06;;;;;;;4.63;2.97;;;12.70;96.20;;;;;;6185974;22;88063;-78
2023/05/10 08:56:31;;;;;;;4.88;2.90;;;12.60;96.50;;;;;;6185874;22;89182;-80
2023/05/10 08:58:57;;;;;;;6.07;3.00;;;12.70;96.60;;;;;;6188486;22;88370;-80
2023/05/10 09:01:24;;;;;;;6.25;3.05;;;12.70;96.60;;;;;;6191308;22;87358;-80
2023/05/10 09:03:50;;;;;;;4.10;2.80;;;12.70;96.50;;;;;;6174560;22;87435;-81
2023/05/10 09:06:16;;;;;;;5.50;3.28;;;12.80;96.80;;;;;;6184672;22;88144;-81
2023/05/10 09:08:43;;;;;;;6.22;3.63;;;12.90;96.70;;;;;;6184017;22;87901;-81
2023/05/10 09:11:09;;;;;;;5.93;3.60;;;13.00;96.40;;;;;;6185789;22;87416;-81
2023/05/10 09:13:36;;;;;;;6.85;4.25;;;13.10;96.00;;;;;;6184601;22;87252;-80
2023/05/10 09:16:03;;;;;;;6.13;3.42;;;13.10;96.20;;;;;;6182504;22;88937;-80
2023/05/10 09:18:28;;;;;;;8.13;3.15;;;13.10;96.00;;;;;;6157850;22;92436;-80
2023/05/10 09:20:54;;;;;;;7.60;3.90;;;13.10;95.90;;;;;;6186311;22;88442;-79
2023/05/10 09:23:20;;;;;;;6.85;3.67;;;13.20;96.10;;;;;;6186635;22;87233;-80
2023/05/10 09:25:46;;;;;;;7.03;3.78;;;13.30;95.90;;;;;;6185275;22;89726;-80
2023/05/10 09:28:12;;;;;;;5.60;4.05;;;13.40;95.70;;;;;;6187430;22;88241;-81
2023/05/10 09:30:39;;;;;;;6.63;4.20;;;13.40;95.70;;;;;;6187159;22;88204;-80
2023/05/10 09:33:04;;;;;;;7.45;4.97;;;13.50;95.40;;;;;;6162754;22;90413;-80
2023/05/10 09:35:32;;;;;;;8.68;4.70;;;13.60;95.40;;;;;;6166346;22;90946;-82
2023/05/10 09:38:02;;;;;;;10.48;4.97;;;13.70;95.80;;;;;;6194210;22;88343;-82
2023/05/10 09:40:29;;;;;;;5.70;3.83;;;13.70;95.50;;;;;;6191315;22;87246;-78
2023/05/10 09:43:03;;;;;;;6.63;4.50;;;13.80;94.50;;;;;;6187184;22;87606;-79
2023/05/10 09:45:33;;;;;;;7.63;5.32;;;13.80;95.20;;;;;;6188101;22;90147;-78
2023/05/10 09:48:02;;;;;;;11.57;5.78;;;13.80;94.80;;;;;;6158947;22;88901;-77
2023/05/10 09:50:28;;;;;;;9.93;6.07;;;13.80;95.60;;;;;;6159843;22;87158;-77
2023/05/10 09:53:00;;;;;;;9.35;5.50;;;13.90;95.80;;;;;;6185764;22;87482;-77
2023/05/10 09:55:46;;;;;;;10.18;6.25;;;14.00;94.50;;;;;;6187391;22;88216;-77
2023/05/10 09:58:15;;;;;;;10.55;6.25;;;14.00;95.20;;;;;;6186437;22;91540;-77
2023/05/10 10:00:47;;;;;;;10.20;6.53;;;14.10;94.80;;;;;;6159189;22;91213;-77
2023/05/10 10:03:20;;;;;;;11.07;6.63;;;14.10;95.10;;;;;;6186922;22;87983;-77
2023/05/10 10:05:47;;;;;;;;;;;14.20;95.20;;;;;;6187012;22;88628;-77
2023/05/10 10:08:13;;;;;;;13.02;7.28;;;14.10;94.20;;;;;;6187899;22;87974;-77
2023/05/10 10:10:46;;;;;;;12.75;6.53;;;14.20;94.20;;;;;;6186503;22;88180;-77
2023/05/10 10:13:12;;;;;;;13.43;7.20;;;14.10;94.10;;;;;;6159664;22;95118;-77
2023/05/10 10:15:38;;;;;;;13.65;7.90;;;14.10;94.60;;;;;;6185309;22;88881;-77
2023/05/10 10:18:05;;;;;;;15.75;7.78;;;14.10;94.40;;;;;;6185543;22;88606;-77
2023/05/10 10:20:31;;;;;;;19.77;8.50;;;14.10;94.60;;;;;;6158762;22;89558;-77
2023/05/10 10:22:56;;;;;;;14.85;8.70;;;14.10;94.20;;;;;;6185828;22;87537;-77
2023/05/10 10:25:22;;;;;;;40.58;11.93;;;14.00;94.50;;;;;;6188033;22;88054;-78
2023/05/10 10:27:51;;;;;;;16.75;8.52;;;14.00;95.00;;;;;;6185572;22;87871;-78
2023/05/10 10:30:38;;;;;;;13.10;7.85;;;14.10;94.80;;;;;;6186616;22;87436;-79
2023/05/10 10:33:07;;;;;;;18.38;8.32;;;14.10;94.90;;;;;;6185642;22;87823;-78
2023/05/10 10:35:33;;;;;;;13.55;7.68;;;14.10;94.50;;;;;;6157623;22;92133;-78
2023/05/10 10:38:00;;;;;;;13.65;7.45;;;14.10;94.20;;;;;;6184705;22;88616;-78
2023/05/10 10:40:28;;;;;;;13.07;8.07;;;14.00;94.80;;;;;;6187266;22;87298;-78
2023/05/10 10:42:55;;;;;;;13.52;7.82;;;14.10;94.80;;;;;;6185770;22;87825;-78
2023/05/10 10:45:22;;;;;;;11.57;6.60;;;14.10;94.40;;;;;;6184981;22;94927;-78
2023/05/10 10:47:48;;;;;;;10.48;6.00;;;14.10;94.40;;;;;;6184491;22;88248;-79
2023/05/10 10:50:15;;;;;;;10.38;6.07;;;14.10;94.30;;;;;;6186524;22;87461;-78
2023/05/10 10:52:43;;;;;;;10.45;6.55;;;14.10;94.10;;;;;;6160995;22;89487;-79
2023/05/10 10:55:14;;;;;;;11.00;6.53;;;14.10;94.30;;;;;;6159620;22;91919;-78
2023/05/10 10:57:51;;;;;;;9.57;5.75;;;14.20;94.20;;;;;;6185268;22;88354;-79
2023/05/10 11:00:31;;;;;;;6.90;4.78;;;14.30;93.70;;;;;;6183262;22;88546;-79
2023/05/10 11:03:14;;;;;;;11.63;6.13;;;14.30;93.40;;;;;;6186308;22;87529;-79
2023/05/10 11:05:52;;;;;;;7.53;4.32;;;14.30;94.30;;;;;;6158487;22;90245;-79
2023/05/10 11:08:33;;;;;;;8.02;4.97;;;14.30;94.00;;;;;;6186303;22;88587;-79
2023/05/10 11:10:59;;;;;;;7.85;4.20;;;14.40;93.70;;;;;;6185566;22;87259;-80
2023/05/10 11:13:43;;;;;;;8.48;4.82;;;14.40;93.80;;;;;;6186385;22;87593;-79
2023/05/10 11:16:40;;;;;;;5.78;4.00;;;14.50;93.30;;;;;;6157625;22;95812;-79
2023/05/10 11:19:11;;;;;;;6.68;3.90;;;14.50;93.10;;;;;;6185853;22;88295;-79
2023/05/10 11:22:05;;;;;;;6.95;4.03;;;14.50;93.30;;;;;;6185499;22;87402;-79
2023/05/10 11:24:31;;;;;;;8.95;4.97;;;14.60;94.00;;;;;;6169955;22;87368;-79
2023/05/10 11:26:57;;;;;;;8.50;4.50;;;14.70;93.30;;;;;;6185398;22;88528;-79
2023/05/10 11:29:23;;;;;;;8.23;3.92;;;14.70;93.00;;;;;;6186314;22;89169;-78
2023/05/10 11:31:49;;;;;;;5.97;4.07;;;14.70;93.60;;;;;;6184987;22;87429;-78
2023/05/10 11:34:26;;;;;;;7.10;4.43;;;14.80;93.80;;;;;;6186064;22;87592;-79
2023/05/10 11:36:53;;;;;;;5.20;3.50;;;14.90;93.50;;;;;;6158139;22;91668;-79
2023/05/10 11:39:20;;;;;;;4.78;3.25;;;14.90;92.90;;;;;;6157453;22;90159;-79
2023/05/10 11:41:50;;;;;;;6.03;3.33;;;14.90;92.40;;;;;;6184326;22;87359;-79
2023/05/10 11:44:16;;;;;;;5.43;3.28;;;14.90;92.80;;;;;;6185376;22;87314;-79
2023/05/10 11:46:41;;;;;;;5.25;2.95;;;15.00;92.50;;;;;;6182070;22;88561;-77
2023/05/10 11:49:07;;;;;;;4.63;3.40;;;15.00;92.80;;;;;;6181223;22;88676;-79
2023/05/10 11:51:35;;;;;;;4.40;2.72;;;15.00;92.40;;;;;;6184825;22;88464;-79
2023/05/10 11:54:05;;;;;;;4.30;2.92;;;15.10;92.80;;;;;;6186591;22;87395;-80
2023/05/10 11:56:32;;;;;;;4.28;2.90;;;15.10;91.70;;;;;;6185969;22;87556;-79
2023/05/10 11:58:59;;;;;;;5.45;3.00;;;15.20;92.40;;;;;;6186256;22;88219;-79
2023/05/10 12:01:26;;;;;;;4.28;3.00;;;15.20;92.10;;;;;;6187092;22;88063;-79
2023/05/10 12:03:53;;;;;;;3.88;2.63;;;15.20;91.90;;;;;;6186414;22;87430;-79
2023/05/10 12:06:21;;;;;;;6.35;2.88;;;15.30;92.30;;;;;;6186496;22;88811;-79
2023/05/10 12:08:52;;;;;;;4.50;2.55;;;15.40;92.30;;;;;;6183620;22;88758;-79
2023/05/10 12:11:18;;;;;;;5.72;2.90;;;15.40;92.20;;;;;;6186502;22;87450;-79
2023/05/10 12:13:47;;;;;;;7.68;3.30;;;15.60;92.10;;;;;;6186366;22;87577;-78
2023/05/10 12:16:24;;;;;;;4.13;2.60;;;15.70;92.70;;;;;;6186539;22;89225;-79
2023/05/10 12:18:52;;;;;;;3.63;2.92;;;15.90;91.70;;;;;;6158485;22;91411;-79
2023/05/10 12:21:19;;;;;;;2.88;2.40;;;16.00;91.80;;;;;;6186178;22;87088;-79
2023/05/10 12:23:46;;;;;;;3.17;2.38;;;16.10;90.30;;;;;;6158913;22;90224;-79
2023/05/10 12:26:13;;;;;;;3.47;2.15;;;16.10;90.40;;;;;;6172509;22;87553;-78
2023/05/10 12:28:42;;;;;;;3.17;1.92;;;16.10;91.10;;;;;;6187487;22;87979;-79
2023/05/10 12:31:08;;;;;;;2.35;1.70;;;16.30;88.10;;;;;;6160225;22;88072;-79
2023/05/10 12:33:38;;;;;;;1.80;1.40;;;16.40;89.20;;;;;;6186398;22;86708;-79
2023/05/10 12:36:06;;;;;;;3.25;1.42;;;16.40;86.40;;;;;;6183369;22;87491;-79
2023/05/10 12:38:39;;;;;;;1.50;1.08;;;16.40;88.60;;;;;;6186506;22;88219;-80
2023/05/10 12:41:06;;;;;;;1.52;1.30;;;16.40;89.90;;;;;;6186129;22;88424;-78